Time;durP1;ratioP1;P1;durP2;ratioP2;P2;SDS_P1;SDS_P2;PMS_P1;PMS_P2;Temp;Humidity;BMP_temperature;BMP_pressure;BME280_temperature;BME280_humidity;BME280_pressure;Samples;Min_cycle;Max_cycle;Signal;HPM_P1;HPM_P2
2023/01/30 00:02:21;;;;;;;21.23;13.82;;;;;;;-0.50;79.75;100921.41;7394704;19;20034;-67
2023/01/30 00:04:50;;;;;;;25.90;16.77;;;;;;;-0.48;80.20;100931.81;7393582;19;20011;-67
2023/01/30 00:07:18;;;;;;;26.73;16.90;;;;;;;-0.49;80.71;100930.03;7394389;19;20027;-66
2023/01/30 00:09:47;;;;;;;25.42;15.98;;;;;;;-0.51;80.58;100922.25;7394659;19;20498;-66
2023/01/30 00:12:15;;;;;;;23.50;15.32;;;;;;;-0.51;79.80;100942.00;7394559;19;20031;-66
2023/01/30 00:14:44;;;;;;;27.60;16.02;;;;;;;-0.51;80.91;100937.72;7393292;19;20018;-67
2023/01/30 00:17:12;;;;;;;26.83;17.50;;;;;;;-0.51;80.90;100944.59;7394834;19;20023;-67
2023/01/30 00:19:43;;;;;;;27.38;17.25;;;;;;;-0.50;80.84;100925.72;7394779;19;20103;-67
2023/01/30 00:22:12;;;;;;;24.30;16.65;;;;;;;-0.51;81.11;100942.88;7395218;19;20042;-67
2023/01/30 00:24:40;;;;;;;26.10;16.83;;;;;;;-0.50;81.17;100926.56;7392985;19;20032;-67
2023/01/30 00:27:09;;;;;;;26.40;15.82;;;;;;;-0.50;80.77;100923.13;7394129;19;20030;-67
2023/01/30 00:29:37;;;;;;;30.20;18.17;;;;;;;-0.51;80.96;100904.22;7394796;19;20036;-67
2023/01/30 00:32:06;;;;;;;26.55;16.25;;;;;;;-0.51;79.80;100893.91;7394412;19;20010;-67
2023/01/30 00:34:34;;;;;;;27.33;16.60;;;;;;;-0.48;80.82;100889.66;7392373;19;20495;-67
2023/01/30 00:37:06;;;;;;;28.83;18.52;;;;;;;-0.47;81.53;100891.41;7393266;19;20481;-67
2023/01/30 00:39:34;;;;;;;29.73;18.63;;;;;;;-0.48;80.06;100874.19;7394824;19;20014;-67
2023/01/30 00:47:24;;;;;;;28.65;17.95;;;;;;;-0.50;80.64;100844.09;7394719;19;20412;-67
2023/01/30 00:49:53;;;;;;;28.77;17.63;;;;;;;-0.49;81.49;100837.25;7401058;19;20014;-66
2023/01/30 00:52:24;;;;;;;29.33;18.75;;;;;;;-0.48;80.58;100825.22;7400946;19;20031;-67
2023/01/30 00:54:52;;;;;;;28.25;18.90;;;;;;;-0.48;80.38;100814.91;7398737;19;20022;-67
2023/01/30 00:57:21;;;;;;;26.52;17.58;;;;;;;-0.48;80.23;100802.03;7399380;19;20016;-66
2023/01/30 00:59:49;;;;;;;29.77;19.08;;;;;;;-0.47;80.82;100785.72;7401150;19;20022;-66
2023/01/30 01:02:18;;;;;;;29.45;18.30;;;;;;;-0.48;80.71;100773.66;7400604;19;20019;-66
2023/01/30 01:04:46;;;;;;;29.52;17.80;;;;;;;-0.49;80.12;100765.09;7398151;19;20499;-68
2023/01/30 01:07:16;;;;;;;31.33;19.52;;;;;;;-0.50;79.04;100750.44;7399902;19;20486;-67
2023/01/30 01:09:47;;;;;;;25.83;17.17;;;;;;;-0.48;81.19;100740.16;7400931;19;20032;-67
2023/01/30 01:12:15;;;;;;;26.33;17.48;;;;;;;-0.49;79.70;100729.00;7400823;19;20022;-67
2023/01/30 01:14:44;;;;;;;25.77;18.00;;;;;;;-0.49;80.21;100739.31;7398285;19;20042;-67
2023/01/30 01:17:19;;;;;;;24.83;16.40;;;;;;;-0.48;80.00;100727.28;7400521;19;20015;-66
2023/01/30 01:19:48;;;;;;;26.13;18.00;;;;;;;-0.51;79.36;100708.31;7400159;19;20018;-67
2023/01/30 01:22:16;;;;;;;26.58;17.10;;;;;;;-0.48;79.80;100732.44;7400061;19;20010;-66
2023/01/30 01:24:47;;;;;;;25.70;17.58;;;;;;;-0.47;80.28;100710.97;7398063;19;20022;-67
2023/01/30 01:27:16;;;;;;;28.02;17.80;;;;;;;-0.46;79.83;100708.44;7399996;19;20036;-67
2023/01/30 01:29:45;;;;;;;24.65;15.57;;;;;;;-0.46;80.06;100708.44;7400192;19;20045;-67
2023/01/30 01:32:13;;;;;;;24.92;15.98;;;;;;;-0.45;79.87;100673.22;7400063;19;20015;-67
2023/01/30 01:34:42;;;;;;;24.45;16.30;;;;;;;-0.43;80.68;100672.44;7397805;19;20077;-68
2023/01/30 01:37:10;;;;;;;25.15;17.42;;;;;;;-0.42;79.91;100656.09;7399272;19;20033;-67
2023/01/30 01:42:24;;;;;;;23.90;15.32;;;;;;;-0.41;79.57;100644.09;7400251;19;20015;-66
2023/01/30 01:45:16;;;;;;;25.45;15.90;;;;;;;-0.39;79.50;100663.91;7397422;19;20022;-67
2023/01/30 01:48:00;;;;;;;22.25;15.80;;;;;;;-0.37;79.58;100672.56;7399232;19;20035;-67
2023/01/30 01:50:39;;;;;;;23.88;17.13;;;;;;;-0.34;80.23;100677.78;7399943;19;20028;-67
2023/01/30 01:53:10;;;;;;;24.83;16.77;;;;;;;-0.37;79.68;100671.69;7398834;19;20066;-67
2023/01/30 01:55:40;;;;;;;26.05;17.15;;;;;;;-0.41;79.46;100670.75;7399636;19;20014;-66
2023/01/30 01:58:15;;;;;;;23.20;15.93;;;;;;;-0.31;79.53;100676.97;7399258;19;20015;-66
2023/01/30 02:00:44;;;;;;;24.80;16.00;;;;;;;-0.30;79.31;100665.81;7399211;19;20018;-67
2023/01/30 02:03:17;;;;;;;26.33;17.08;;;;;;;-0.30;79.73;100670.97;7398312;19;20010;-67
2023/01/30 02:05:50;;;;;;;24.77;16.90;;;;;;;-0.29;79.98;100659.84;7399355;19;20018;-67
2023/01/30 02:08:21;;;;;;;24.40;16.85;;;;;;;-0.28;79.67;100646.09;7398089;19;20015;-67
2023/01/30 02:10:58;;;;;;;24.08;16.08;;;;;;;-0.31;78.82;100648.59;7398840;19;20019;-67
2023/01/30 02:13:29;;;;;;;21.92;15.32;;;;;;;-0.28;79.93;100635.78;7400056;19;20424;-68
2023/01/30 02:16:00;;;;;;;25.70;16.17;;;;;;;-0.31;79.38;100620.25;7400317;19;20021;-69
2023/01/30 02:18:30;;;;;;;23.92;14.73;;;;;;;-0.29;80.66;100597.97;7400293;19;20031;-69
2023/01/30 02:21:28;;;;;;;26.35;16.83;;;;;;;-0.28;80.34;100583.34;7399398;19;20015;-68
2023/01/30 02:24:26;;;;;;;25.25;16.40;;;;;;;-0.32;80.42;100579.84;7397301;19;20070;-69
2023/01/30 02:27:17;;;;;;;24.63;15.43;;;;;;;-0.31;80.78;100584.16;7397914;19;20010;-68
2023/01/30 02:30:23;;;;;;;24.17;15.95;;;;;;;-0.32;80.67;100573.81;7397767;19;20018;-68
2023/01/30 02:33:03;;;;;;;23.70;15.18;;;;;;;-0.32;81.05;100541.16;7397703;19;20018;-68
2023/01/30 02:35:42;;;;;;;24.85;15.30;;;;;;;-0.34;80.97;100538.56;7398157;19;20015;-68
2023/01/30 02:38:23;;;;;;;22.13;14.27;;;;;;;-0.34;80.80;100522.25;7396813;19;20028;-68
2023/01/30 02:41:03;;;;;;;23.17;15.88;;;;;;;-0.34;80.82;100537.72;7398164;19;20011;-68
2023/01/30 02:43:39;;;;;;;21.95;15.05;;;;;;;-0.34;80.60;100524.81;7397156;19;20018;-68
2023/01/30 02:46:17;;;;;;;23.85;16.33;;;;;;;-0.34;80.92;100522.25;7397944;19;20014;-68
2023/01/30 02:48:50;;;;;;;23.25;15.07;;;;;;;-0.34;81.66;100514.50;7396814;19;20011;-68
2023/01/30 02:51:22;;;;;;;25.17;16.30;;;;;;;-0.35;81.68;100529.09;7399491;19;20015;-68
2023/01/30 02:53:52;;;;;;;26.15;16.45;;;;;;;-0.36;81.27;100523.91;7396605;19;20024;-68
2023/01/30 02:56:21;;;;;;;27.75;17.42;;;;;;;-0.42;81.37;100522.06;7397220;19;20023;-68
2023/01/30 02:58:53;;;;;;;24.05;15.98;;;;;;;-0.41;81.23;100516.06;7397104;19;20011;-68
2023/01/30 03:01:50;;;;;;;23.90;16.25;;;;;;;-0.37;81.62;100480.91;7396664;19;20014;-68
2023/01/30 03:04:40;;;;;;;24.60;16.55;;;;;;;-0.37;81.17;100509.28;7395310;19;20022;-68
2023/01/30 03:07:29;;;;;;;24.48;16.05;;;;;;;-0.36;81.20;100498.13;7397574;19;20035;-69
2023/01/30 03:10:04;;;;;;;26.77;16.92;;;;;;;-0.36;81.47;100487.81;7398149;19;20026;-68
2023/01/30 03:12:44;;;;;;;27.05;16.42;;;;;;;-0.35;81.70;100463.78;7398362;19;20031;-68
2023/01/30 03:15:18;;;;;;;27.85;16.40;;;;;;;-0.34;81.91;100450.06;7397036;19;20019;-68
2023/01/30 03:17:49;;;;;;;26.20;16.10;;;;;;;-0.36;81.72;100473.19;7396418;19;20014;-68
2023/01/30 03:20:22;;;;;;;25.40;16.90;;;;;;;-0.35;81.97;100472.38;7397102;19;20098;-67
2023/01/30 03:22:50;;;;;;;23.02;15.25;;;;;;;-0.33;81.77;100480.13;7396448;19;20010;-69
2023/01/30 03:25:22;;;;;;;25.25;15.75;;;;;;;-0.31;82.74;100455.25;7396921;19;20018;-68
2023/01/30 03:27:52;;;;;;;23.92;15.45;;;;;;;-0.29;82.26;100468.16;7395463;19;20019;-68
2023/01/30 03:30:21;;;;;;;24.48;15.63;;;;;;;-0.28;82.38;100459.59;7394217;19;20010;-68
2023/01/30 03:32:50;;;;;;;25.45;15.88;;;;;;;-0.26;82.84;100445.88;7395679;19;20019;-68
2023/01/30 03:35:21;;;;;;;23.13;15.07;;;;;;;-0.28;82.51;100434.66;7395994;19;20014;-69
2023/01/30 03:37:49;;;;;;;24.58;16.00;;;;;;;-0.20;82.08;100443.41;7394839;19;20351;-69
2023/01/30 03:40:19;;;;;;;24.60;15.18;;;;;;;-0.23;82.11;100417.59;7396150;19;20031;-68
2023/01/30 03:42:48;;;;;;;23.58;16.15;;;;;;;-0.19;82.61;100429.69;7395491;19;20028;-68
2023/01/30 03:45:16;;;;;;;23.13;15.02;;;;;;;-0.11;82.42;100432.41;7395386;19;20022;-68
2023/01/30 03:47:45;;;;;;;21.38;14.52;;;;;;;-0.07;82.52;100430.75;7395239;19;20010;-68
2023/01/30 03:50:13;;;;;;;24.98;14.68;;;;;;;-0.05;82.46;100410.97;7395561;19;20023;-68
2023/01/30 03:52:44;;;;;;;23.95;15.02;;;;;;;-0.03;83.19;100410.16;7394936;19;20372;-68
2023/01/30 03:55:13;;;;;;;25.33;15.95;;;;;;;-0.01;83.81;100407.63;7395142;19;20376;-68
2023/01/30 03:57:42;;;;;;;23.75;15.30;;;;;;;0.00;84.77;100419.69;7395294;19;20011;-68
2023/01/30 04:00:11;;;;;;;24.83;15.15;;;;;;;-0.01;85.20;100397.31;7395337;19;20041;-68
2023/01/30 04:02:40;;;;;;;27.00;16.70;;;;;;;-0.04;85.72;100372.34;7394660;19;20014;-68
2023/01/30 04:05:09;;;;;;;26.65;16.95;;;;;;;-0.03;87.04;100378.34;7395032;19;20023;-68
2023/01/30 04:07:37;;;;;;;24.50;16.00;;;;;;;-0.06;87.27;100379.19;7395221;19;20035;-68
2023/01/30 04:10:10;;;;;;;25.75;17.02;;;;;;;-0.11;88.09;100344.72;7393204;19;20022;-68
2023/01/30 04:12:38;;;;;;;25.63;17.10;;;;;;;-0.12;88.16;100368.75;7394365;19;20015;-68
2023/01/30 04:15:08;;;;;;;24.27;16.20;;;;;;;-0.13;88.58;100356.69;7394604;19;20502;-68
2023/01/30 04:17:37;;;;;;;28.98;17.08;;;;;;;-0.13;89.22;100366.16;7394817;19;20010;-68
2023/01/30 04:20:06;;;;;;;23.77;14.63;;;;;;;-0.18;89.69;100342.88;7394730;19;20086;-68
2023/01/30 04:22:34;;;;;;;27.40;17.13;;;;;;;-0.13;89.88;100346.38;7396056;19;20015;-68
2023/01/30 04:25:03;;;;;;;28.25;17.05;;;;;;;-0.12;90.09;100349.84;7402205;19;20018;-68
2023/01/30 04:27:34;;;;;;;27.63;16.88;;;;;;;-0.12;90.36;100345.56;7402088;19;20035;-68
2023/01/30 04:30:02;;;;;;;27.08;16.42;;;;;;;-0.10;90.81;100340.41;7399181;19;20485;-68
2023/01/30 04:32:31;;;;;;;26.65;16.98;;;;;;;-0.08;91.02;100346.47;7401959;19;20018;-69
2023/01/30 04:34:59;;;;;;;27.38;16.15;;;;;;;-0.07;90.70;100318.13;7399014;19;20019;-68
2023/01/30 04:37:28;;;;;;;26.00;16.80;;;;;;;-0.04;90.67;100330.19;7400959;19;20031;-69
2023/01/30 04:39:56;;;;;;;29.27;18.30;;;;;;;-0.01;90.29;100307.03;7401452;19;20018;-67
2023/01/30 04:42:25;;;;;;;25.75;16.40;;;;;;;0.00;90.53;100308.78;7401540;19;20018;-68
2023/01/30 04:44:56;;;;;;;24.30;15.80;;;;;;;0.02;90.44;100301.91;7398236;19;20036;-68
2023/01/30 04:47:25;;;;;;;25.73;16.95;;;;;;;0.06;90.26;100306.25;7401935;19;20018;-68
2023/01/30 04:49:53;;;;;;;28.63;16.63;;;;;;;0.09;90.44;100310.59;7399213;19;20015;-68
2023/01/30 04:52:22;;;;;;;27.05;16.65;;;;;;;0.11;90.41;100291.72;7401151;19;20019;-68
2023/01/30 04:54:50;;;;;;;26.15;15.70;;;;;;;0.14;90.31;100309.81;7398128;19;20018;-68
2023/01/30 04:57:19;;;;;;;27.27;15.60;;;;;;;0.18;90.23;100289.22;7400670;19;20023;-68
2023/01/30 04:59:47;;;;;;;25.48;16.10;;;;;;;0.19;89.79;100299.59;7400287;19;20078;-68
2023/01/30 05:02:18;;;;;;;20.95;14.02;;;;;;;0.25;89.97;100293.63;7400503;19;20015;-67
2023/01/30 05:04:47;;;;;;;24.77;15.27;;;;;;;0.31;89.93;100289.41;7397984;19;20010;-68
2023/01/30 05:07:15;;;;;;;26.05;16.08;;;;;;;0.37;89.70;100277.41;7400268;19;20018;-69
2023/01/30 05:09:44;;;;;;;25.63;16.35;;;;;;;0.40;89.29;100272.31;7398593;19;20027;-68
2023/01/30 05:12:12;;;;;;;25.52;16.40;;;;;;;0.41;89.19;100264.56;7400209;19;20014;-68
2023/01/30 05:14:41;;;;;;;24.50;16.08;;;;;;;0.44;89.24;100258.59;7398266;19;20083;-68
2023/01/30 05:17:10;;;;;;;25.10;16.85;;;;;;;0.47;88.63;100253.47;7400202;19;20572;-68
2023/01/30 05:19:41;;;;;;;25.45;16.15;;;;;;;0.48;88.80;100243.16;7400144;19;20041;-67
2023/01/30 05:22:09;;;;;;;25.42;16.38;;;;;;;0.51;88.80;100251.81;7400510;19;20014;-68
2023/01/30 05:24:38;;;;;;;26.38;16.58;;;;;;;0.53;88.93;100252.66;7397770;19;20015;-69
2023/01/30 05:27:07;;;;;;;25.90;16.40;;;;;;;0.54;88.67;100241.50;7399671;19;20485;-69
2023/01/30 05:29:35;;;;;;;25.80;15.55;;;;;;;0.54;89.15;100250.09;7398716;19;20014;-69
2023/01/30 05:32:05;;;;;;;26.98;16.33;;;;;;;0.57;88.92;100257.00;7399849;19;20014;-67
2023/01/30 05:34:34;;;;;;;26.77;16.45;;;;;;;0.57;89.08;100249.25;7396645;19;20070;-67
2023/01/30 05:37:05;;;;;;;28.52;16.00;;;;;;;0.55;89.01;100269.91;7399356;19;20014;-67
2023/01/30 05:39:34;;;;;;;30.60;17.67;;;;;;;0.54;89.74;100257.84;7397167;19;20598;-68
2023/01/30 05:42:02;;;;;;;28.48;17.20;;;;;;;0.50;90.07;100238.00;7399839;19;20014;-67
2023/01/30 05:44:31;;;;;;;30.25;16.60;;;;;;;0.47;90.70;100251.75;7397539;19;20039;-68
2023/01/30 05:46:59;;;;;;;31.17;17.30;;;;;;;0.46;91.31;100249.16;7399489;19;20022;-68
2023/01/30 05:49:28;;;;;;;27.80;16.55;;;;;;;0.40;92.08;100244.78;7398453;19;20011;-67
2023/01/30 05:51:56;;;;;;;27.75;17.17;;;;;;;0.39;91.82;100249.91;7398833;19;20035;-68
2023/01/30 05:54:27;;;;;;;34.90;17.98;;;;;;;0.34;92.82;100229.22;7396704;19;20014;-67
2023/01/30 05:56:56;;;;;;;32.95;18.77;;;;;;;0.29;93.63;100226.59;7399296;19;20074;-68
2023/01/30 05:59:24;;;;;;;34.03;20.17;;;;;;;0.29;93.64;100218.84;7398888;19;20032;-68
2023/01/30 06:01:53;;;;;;;32.97;18.25;;;;;;;0.27;94.08;100217.97;7398549;19;20015;-68
2023/01/30 06:04:21;;;;;;;35.25;20.77;;;;;;;0.28;94.26;100229.16;7396661;19;20086;-67
2023/01/30 06:06:51;;;;;;;35.75;20.75;;;;;;;0.28;94.12;100211.09;7398331;19;20023;-67
2023/01/30 06:09:20;;;;;;;37.35;19.98;;;;;;;0.29;94.56;100210.22;7397436;19;20007;-67
2023/01/30 06:11:51;;;;;;;32.67;17.67;;;;;;;0.29;95.30;100212.81;7398811;19;20022;-68
2023/01/30 06:14:19;;;;;;;38.97;20.33;;;;;;;0.29;95.09;100195.63;7396925;19;20018;-68
2023/01/30 06:16:48;;;;;;;38.13;18.98;;;;;;;0.31;94.69;100204.25;7398057;19;20419;-68
2023/01/30 06:19:16;;;;;;;37.05;19.90;;;;;;;0.32;95.65;100199.97;7398000;19;20023;-68
2023/01/30 06:21:45;;;;;;;38.95;21.67;;;;;;;0.33;96.03;100188.81;7398137;19;20019;-68
2023/01/30 06:24:13;;;;;;;37.10;20.58;;;;;;;0.34;96.33;100195.66;7396567;19;20184;-68
2023/01/30 06:26:42;;;;;;;39.63;20.08;;;;;;;0.36;96.47;100175.91;7398497;19;20014;-68
2023/01/30 06:29:13;;;;;;;38.28;20.05;;;;;;;0.38;96.45;100204.31;7397469;19;20018;-69
2023/01/30 06:31:41;;;;;;;37.33;20.70;;;;;;;0.39;96.25;100199.19;7397765;19;20362;-68
2023/01/30 06:34:10;;;;;;;37.55;21.25;;;;;;;0.39;96.53;100186.28;7396127;19;20085;-69
2023/01/30 06:36:38;;;;;;;40.97;21.33;;;;;;;0.39;96.80;100185.41;7397370;19;20014;-68
2023/01/30 06:39:07;;;;;;;45.60;22.55;;;;;;;0.40;96.90;100187.13;7395252;19;20027;-68
2023/01/30 06:41:35;;;;;;;37.42;20.42;;;;;;;0.41;97.37;100188.88;7397157;19;20035;-68
2023/01/30 06:44:04;;;;;;;41.88;22.48;;;;;;;0.41;97.41;100191.47;7396130;19;20022;-68
2023/01/30 06:46:35;;;;;;;41.00;21.95;;;;;;;0.41;97.39;100204.38;7394603;19;20035;-68
2023/01/30 06:49:03;;;;;;;42.58;22.95;;;;;;;0.41;96.94;100205.22;7397376;19;20018;-67
2023/01/30 06:51:32;;;;;;;46.55;23.98;;;;;;;0.40;97.81;100208.63;7396947;19;20014;-68
2023/01/30 06:54:00;;;;;;;45.35;24.52;;;;;;;0.39;98.25;100209.50;7396249;19;20031;-69
2023/01/30 06:56:35;;;;;;;47.33;25.83;;;;;;;0.39;98.33;100209.50;7397182;19;20026;-68
2023/01/30 06:59:04;;;;;;;51.50;24.55;;;;;;;0.38;98.29;100212.94;7396787;19;20010;-68
2023/01/30 07:01:36;;;;;;;45.28;23.80;;;;;;;0.38;98.39;100220.69;7396437;19;20031;-67
2023/01/30 07:04:04;;;;;;;45.20;23.52;;;;;;;0.39;98.56;100211.22;7395796;19;20035;-68
2023/01/30 07:06:33;;;;;;;45.63;22.77;;;;;;;0.37;98.88;100200.88;7396745;19;20006;-68
2023/01/30 07:09:02;;;;;;;45.25;23.88;;;;;;;0.39;98.80;100206.06;7397605;19;20019;-68
2023/01/30 07:11:30;;;;;;;48.80;23.75;;;;;;;0.38;99.48;100191.41;7398267;19;20031;-67
2023/01/30 07:13:59;;;;;;;47.05;23.00;;;;;;;0.38;99.40;100184.56;7395544;19;20015;-67
2023/01/30 07:16:28;;;;;;;47.65;24.85;;;;;;;0.39;99.22;100190.56;7396309;19;20032;-68
2023/01/30 07:18:59;;;;;;;44.33;22.55;;;;;;;0.39;99.01;100183.72;7396474;19;20029;-68
2023/01/30 07:21:28;;;;;;;42.92;21.42;;;;;;;0.43;99.89;100179.41;7397235;19;20070;-68
2023/01/30 07:24:04;;;;;;;45.50;22.75;;;;;;;0.45;100.00;100183.75;7394809;19;20022;-67
2023/01/30 07:26:32;;;;;;;42.97;21.35;;;;;;;0.47;100.00;100184.63;7395802;19;20021;-68
2023/01/30 07:29:01;;;;;;;45.65;22.10;;;;;;;0.48;100.00;100183.78;7395590;19;20035;-67
2023/01/30 07:31:29;;;;;;;42.08;20.38;;;;;;;0.52;100.00;100168.31;7395754;19;20031;-68
2023/01/30 07:34:00;;;;;;;40.63;20.13;;;;;;;0.54;100.00;100176.97;7394241;19;20015;-68
2023/01/30 07:36:32;;;;;;;41.33;20.88;;;;;;;0.56;100.00;100160.63;7396142;19;20027;-68
2023/01/30 07:39:00;;;;;;;39.83;20.90;;;;;;;0.60;100.00;100164.13;7394632;19;20022;-67
2023/01/30 07:41:29;;;;;;;37.83;19.48;;;;;;;0.62;100.00;100150.38;7396106;19;20026;-68
2023/01/30 07:43:57;;;;;;;47.38;22.10;;;;;;;0.65;100.00;100155.53;7394442;19;20045;-67
2023/01/30 07:46:27;;;;;;;39.20;20.00;;;;;;;0.69;100.00;100151.28;7395563;19;20019;-68
2023/01/30 07:48:56;;;;;;;40.22;21.20;;;;;;;0.71;100.00;100161.63;7394492;19;20015;-68
2023/01/30 07:51:27;;;;;;;35.65;19.60;;;;;;;0.76;100.00;100167.72;7393162;19;20027;-68
2023/01/30 07:53:55;;;;;;;35.88;18.77;;;;;;;0.79;100.00;100149.66;7394097;19;20022;-68
2023/01/30 07:56:24;;;;;;;37.10;20.35;;;;;;;0.83;99.97;100166.91;7394251;19;20014;-69
2023/01/30 07:58:53;;;;;;;36.88;18.35;;;;;;;0.86;99.79;100151.44;7394869;19;20022;-67
2023/01/30 08:01:21;;;;;;;33.42;18.40;;;;;;;0.91;99.73;100169.53;7394468;19;20414;-68
2023/01/30 08:03:50;;;;;;;37.80;18.13;;;;;;;0.94;99.60;100148.94;7394497;19;20039;-68
2023/01/30 08:06:18;;;;;;;33.92;19.25;;;;;;;0.96;99.57;100150.66;7394406;19;20493;-68
2023/01/30 08:08:50;;;;;;;33.13;17.92;;;;;;;1.00;99.02;100159.31;7394270;19;20490;-67
2023/01/30 08:11:18;;;;;;;31.45;16.77;;;;;;;1.03;98.98;100156.72;7393291;19;20087;-68
2023/01/30 08:13:47;;;;;;;32.53;17.42;;;;;;;1.02;98.96;100138.66;7393193;19;20025;-68
2023/01/30 08:16:15;;;;;;;29.92;16.60;;;;;;;1.10;99.10;100140.44;7394072;19;20027;-67
2023/01/30 08:18:44;;;;;;;33.30;16.77;;;;;;;1.13;99.32;100155.94;7394263;19;20510;-68
2023/01/30 08:21:13;;;;;;;31.35;17.38;;;;;;;1.16;99.28;100131.84;7393978;19;20430;-68
2023/01/30 08:23:41;;;;;;;28.13;15.82;;;;;;;1.19;99.41;100143.91;7392945;19;20482;-68
2023/01/30 08:26:12;;;;;;;27.92;16.10;;;;;;;1.21;99.26;100134.47;7394577;19;20022;-68
2023/01/30 08:28:41;;;;;;;28.33;16.00;;;;;;;1.25;99.56;100138.78;7394377;19;20355;-69
2023/01/30 08:31:14;;;;;;;25.17;14.68;;;;;;;1.28;99.38;100128.50;7392507;19;20018;-68
2023/01/30 08:33:42;;;;;;;25.48;15.38;;;;;;;1.33;99.29;100119.06;7392999;19;20039;-67
2023/01/30 08:36:11;;;;;;;25.17;14.82;;;;;;;1.38;99.30;100131.97;7393195;19;20014;-68
2023/01/30 08:38:40;;;;;;;26.08;13.98;;;;;;;1.42;99.29;100132.03;7392560;19;20011;-68
2023/01/30 08:41:11;;;;;;;26.17;14.40;;;;;;;1.46;99.14;100118.25;7393657;19;20031;-66
2023/01/30 08:43:40;;;;;;;21.63;12.63;;;;;;;1.51;98.96;100125.19;7393278;19;20026;-68
2023/01/30 08:46:08;;;;;;;24.00;13.27;;;;;;;1.54;99.13;100120.91;7393864;19;20035;-68
2023/01/30 08:48:39;;;;;;;21.52;11.70;;;;;;;1.57;98.97;100107.97;7393347;19;20024;-67
2023/01/30 08:51:08;;;;;;;19.08;11.38;;;;;;;1.62;98.95;100120.94;7392889;19;20011;-67
2023/01/30 08:53:36;;;;;;;20.95;12.32;;;;;;;1.64;98.73;100106.28;7392595;19;20018;-67
2023/01/30 08:56:05;;;;;;;17.48;11.20;;;;;;;1.68;98.70;100126.13;7393295;19;20019;-68
2023/01/30 08:58:36;;;;;;;17.30;11.25;;;;;;;1.73;98.81;100110.63;7393266;19;20094;-68
2023/01/30 09:01:07;;;;;;;15.35;9.35;;;;;;;1.78;98.64;100127.91;7392784;19;20019;-68
2023/01/30 09:03:36;;;;;;;16.42;9.55;;;;;;;1.85;98.58;100133.97;7392359;19;20014;-67
2023/01/30 09:06:05;;;;;;;18.05;11.23;;;;;;;1.90;98.48;100134.84;7392791;19;20031;-69
2023/01/30 09:08:34;;;;;;;12.60;7.95;;;;;;;1.95;98.28;100142.63;7394151;19;20018;-69
2023/01/30 09:11:03;;;;;;;13.27;7.72;;;;;;;1.99;98.28;100141.78;7398092;19;20090;-69
2023/01/30 09:13:32;;;;;;;12.95;7.97;;;;;;;2.05;98.42;100153.88;7398658;19;20520;-68
2023/01/30 09:16:03;;;;;;;10.57;6.45;;;;;;;2.07;98.83;100162.50;7401060;19;20038;-70
2023/01/30 09:18:32;;;;;;;13.48;7.57;;;;;;;2.09;99.07;100159.06;7399593;19;20086;-69
2023/01/30 09:21:05;;;;;;;10.30;6.88;;;;;;;2.11;99.47;100175.47;7399755;19;20015;-68
2023/01/30 09:23:33;;;;;;;13.13;7.28;;;;;;;2.13;100.00;100165.13;7399208;19;20074;-69
2023/01/30 09:26:02;;;;;;;12.68;6.70;;;;;;;2.11;100.00;100159.94;7399839;19;20015;-68
2023/01/30 09:28:30;;;;;;;12.60;7.25;;;;;;;2.12;100.00;100163.38;7399593;19;20022;-68
2023/01/30 09:30:59;;;;;;;12.95;7.07;;;;;;;2.09;100.00;100166.81;7398001;19;20018;-68
2023/01/30 09:33:31;;;;;;;14.02;7.28;;;;;;;2.11;100.00;100184.94;7398024;19;20019;-68
2023/01/30 09:35:59;;;;;;;13.48;6.97;;;;;;;2.09;100.00;100197.88;7400032;19;20010;-68
2023/01/30 09:38:56;;;;;;;13.38;7.32;;;;;;;2.05;100.00;100180.63;7398343;19;20453;-68
2023/01/30 09:41:47;;;;;;;7.35;4.28;;;;;;;2.00;100.00;100173.69;7399650;19;20027;-68
2023/01/30 09:44:53;;;;;;;7.70;3.10;;;;;;;2.01;100.00;100176.28;7397963;19;20018;-69
2023/01/30 09:47:30;;;;;;;11.85;3.90;;;;;;;2.02;100.00;100172.84;7399230;19;20035;-68
2023/01/30 09:50:13;;;;;;;9.40;4.80;;;;;;;2.05;100.00;100166.81;7398952;19;20018;-68
2023/01/30 09:52:53;;;;;;;8.85;4.03;;;;;;;2.07;100.00;100170.25;7399104;19;20026;-68
2023/01/30 09:55:26;;;;;;;8.95;3.50;;;;;;;2.11;100.00;100170.28;7398827;19;20021;-68
2023/01/30 09:57:55;;;;;;;10.02;3.53;;;;;;;2.18;100.00;100167.72;7398458;19;20019;-67
2023/01/30 10:00:30;;;;;;;11.35;2.65;;;;;;;2.26;100.00;100166.00;7398290;19;20031;-68
2023/01/30 10:03:06;;;;;;;8.10;1.90;;;;;;;2.33;100.00;100174.69;7398429;19;20028;-68
2023/01/30 10:05:45;;;;;;;6.07;1.80;;;;;;;2.39;100.00;100156.53;7399073;19;20014;-68
2023/01/30 10:08:38;;;;;;;8.73;1.58;;;;;;;2.43;100.00;100174.69;7399023;19;20026;-67
2023/01/30 10:11:19;;;;;;;2.45;1.10;;;;;;;2.49;100.00;100154.84;7397623;19;20018;-68
2023/01/30 10:14:05;;;;;;;8.60;2.00;;;;;;;2.54;100.00;100163.50;7397057;19;20015;-68
2023/01/30 10:16:39;;;;;;;9.75;2.53;;;;;;;2.59;100.00;100157.47;7398407;19;20015;-68
2023/01/30 10:19:34;;;;;;;6.18;2.28;;;;;;;2.63;100.00;100170.41;7398070;19;20011;-68
2023/01/30 10:22:14;;;;;;;28.58;7.78;;;;;;;2.67;100.00;100170.44;7397821;19;20031;-68
2023/01/30 10:24:56;;;;;;;17.48;4.55;;;;;;;2.72;100.00;100180.81;7395606;19;20018;-68
2023/01/30 10:27:27;;;;;;;14.88;4.10;;;;;;;2.78;100.00;100175.63;7398529;19;20027;-68
2023/01/30 10:29:59;;;;;;;13.70;4.57;;;;;;;2.82;100.00;100164.41;7397787;19;20015;-67
2023/01/30 10:32:32;;;;;;;10.70;3.13;;;;;;;2.88;100.00;100160.94;7397929;19;20022;-69
2023/01/30 10:35:07;;;;;;;7.60;2.63;;;;;;;2.93;100.00;100173.03;7397150;19;20026;-68
2023/01/30 10:37:47;;;;;;;7.32;3.05;;;;;;;3.00;99.19;100186.88;7397935;19;20031;-68
2023/01/30 10:40:24;;;;;;;12.63;2.72;;;;;;;3.06;98.03;100158.34;7395392;19;20031;-68
2023/01/30 10:43:01;;;;;;;15.45;2.17;;;;;;;3.12;98.32;100174.75;7397598;19;20015;-69
2023/01/30 10:45:40;;;;;;;13.98;2.72;;;;;;;3.18;97.46;100173.03;7397828;19;20027;-68
2023/01/30 10:48:34;;;;;;;13.50;2.00;;;;;;;3.23;97.32;100155.72;7397620;19;20026;-68
2023/01/30 10:51:08;;;;;;;9.82;2.13;;;;;;;3.20;98.14;100144.53;7397156;19;20015;-70
2023/01/30 10:53:46;;;;;;;13.98;2.22;;;;;;;3.27;98.59;100151.41;7396225;19;20022;-68
2023/01/30 10:56:22;;;;;;;14.60;2.53;;;;;;;3.26;98.69;100135.00;7396638;19;20498;-69
2023/01/30 10:58:55;;;;;;;14.10;2.80;;;;;;;3.26;98.88;100135.00;7396692;19;20014;-68
2023/01/30 11:01:27;;;;;;;11.05;2.17;;;;;;;3.26;98.96;100135.00;7397021;19;20423;-69
2023/01/30 11:04:00;;;;;;;14.57;2.50;;;;;;;3.27;99.45;100135.84;7395942;19;20025;-70
2023/01/30 11:06:29;;;;;;;11.90;2.58;;;;;;;3.33;99.91;100124.63;7395980;19;20018;-70
2023/01/30 11:09:00;;;;;;;11.07;2.13;;;;;;;3.38;99.46;100121.16;7395749;19;20036;-69
2023/01/30 11:11:31;;;;;;;14.85;2.58;;;;;;;3.46;98.21;100099.53;7396587;19;20007;-69
2023/01/30 11:14:04;;;;;;;18.63;3.00;;;;;;;3.55;97.74;100122.81;7397654;19;20023;-70
2023/01/30 11:16:35;;;;;;;8.20;2.27;;;;;;;3.65;95.00;100090.81;7395804;19;20517;-69
2023/01/30 11:19:07;;;;;;;13.15;2.30;;;;;;;3.75;94.64;100108.09;7396438;19;20039;-67
2023/01/30 11:21:35;;;;;;;9.90;3.10;;;;;;;3.86;95.34;100102.81;7395238;19;20015;-68
2023/01/30 11:24:17;;;;;;;10.35;2.55;;;;;;;4.02;91.77;100097.56;7393808;19;20014;-68
2023/01/30 11:26:46;;;;;;;13.32;2.63;;;;;;;4.09;93.22;100088.88;7395375;19;20481;-66
2023/01/30 11:29:33;;;;;;;12.23;2.47;;;;;;;4.23;89.83;100084.47;7395310;19;20015;-68
2023/01/30 11:32:05;;;;;;;14.02;3.20;;;;;;;4.34;88.16;100086.13;7393258;19;20450;-69
2023/01/30 11:34:34;;;;;;;11.07;2.53;;;;;;;4.40;88.55;100083.50;7393885;19;20015;-67
2023/01/30 11:37:16;;;;;;;12.40;2.15;;;;;;;4.47;86.48;100076.50;7395241;19;20031;-67
2023/01/30 11:39:58;;;;;;;13.40;2.30;;;;;;;4.54;87.19;100086.84;7393335;19;20027;-68
2023/01/30 11:42:33;;;;;;;16.30;2.67;;;;;;;4.62;90.17;100066.00;7395565;19;20035;-68
2023/01/30 11:45:02;;;;;;;10.70;2.33;;;;;;;4.68;87.13;100063.34;7395581;19;20028;-68